sensor_id;sensor_type;location;lat;lon;timestamp;P1;durP1;ratioP1;P2;durP2;ratioP2
12332;SDS011;6232;48.094;11.288;2022-08-30T00:01:41;15.10;;;9.70;;
12332;SDS011;6232;48.094;11.288;2022-08-30T00:04:26;16.03;;;11.90;;
12332;SDS011;6232;48.094;11.288;2022-08-30T00:07:12;19.67;;;10.73;;
12332;SDS011;6232;48.094;11.288;2022-08-30T00:09:57;15.20;;;10.73;;
12332;SDS011;6232;48.094;11.288;2022-08-30T00:12:43;12.23;;;10.90;;
12332;SDS011;6232;48.094;11.288;2022-08-30T00:15:28;11.63;;;9.60;;
12332;SDS011;6232;48.094;11.288;2022-08-30T00:18:15;15.23;;;10.50;;
12332;SDS011;6232;48.094;11.288;2022-08-30T00:21:02;16.30;;;11.57;;
12332;SDS011;6232;48.094;11.288;2022-08-30T00:23:48;13.73;;;11.33;;
12332;SDS011;6232;48.094;11.288;2022-08-30T00:26:33;10.73;;;9.63;;
12332;SDS011;6232;48.094;11.288;2022-08-30T00:29:19;10.67;;;9.53;;
12332;SDS011;6232;48.094;11.288;2022-08-30T00:32:05;12.50;;;10.47;;
12332;SDS011;6232;48.094;11.288;2022-08-30T00:34:51;10.90;;;9.23;;
12332;SDS011;6232;48.094;11.288;2022-08-30T00:37:36;11.47;;;10.27;;
12332;SDS011;6232;48.094;11.288;2022-08-30T00:40:22;15.43;;;10.30;;
12332;SDS011;6232;48.094;11.288;2022-08-30T00:43:11;11.23;;;9.80;;
12332;SDS011;6232;48.094;11.288;2022-08-30T00:45:57;13.17;;;9.83;;
12332;SDS011;6232;48.094;11.288;2022-08-30T00:48:44;12.03;;;9.70;;
12332;SDS011;6232;48.094;11.288;2022-08-30T00:51:32;20.23;;;10.90;;
12332;SDS011;6232;48.094;11.288;2022-08-30T00:54:18;12.00;;;10.00;;
12332;SDS011;6232;48.094;11.288;2022-08-30T00:57:03;10.73;;;9.63;;
12332;SDS011;6232;48.094;11.288;2022-08-30T00:59:49;13.17;;;10.00;;
12332;SDS011;6232;48.094;11.288;2022-08-30T01:02:35;12.50;;;9.97;;
12332;SDS011;6232;48.094;11.288;2022-08-30T01:05:21;19.37;;;9.57;;
12332;SDS011;6232;48.094;11.288;2022-08-30T01:08:08;13.43;;;10.33;;
12332;SDS011;6232;48.094;11.288;2022-08-30T01:10:53;9.77;;;8.77;;
12332;SDS011;6232;48.094;11.288;2022-08-30T01:13:39;11.17;;;9.73;;
12332;SDS011;6232;48.094;11.288;2022-08-30T01:16:25;13.40;;;10.47;;
12332;SDS011;6232;48.094;11.288;2022-08-30T01:19:25;11.17;;;9.57;;
12332;SDS011;6232;48.094;11.288;2022-08-30T01:22:18;12.10;;;9.50;;
12332;SDS011;6232;48.094;11.288;2022-08-30T01:25:06;11.53;;;9.20;;
12332;SDS011;6232;48.094;11.288;2022-08-30T01:28:05;11.90;;;9.87;;
12332;SDS011;6232;48.094;11.288;2022-08-30T01:30:51;14.10;;;9.87;;
12332;SDS011;6232;48.094;11.288;2022-08-30T01:33:37;16.13;;;10.07;;
12332;SDS011;6232;48.094;11.288;2022-08-30T01:36:23;10.57;;;9.47;;
12332;SDS011;6232;48.094;11.288;2022-08-30T01:39:10;10.83;;;9.70;;
12332;SDS011;6232;48.094;11.288;2022-08-30T01:41:56;17.20;;;10.23;;
12332;SDS011;6232;48.094;11.288;2022-08-30T01:44:42;13.27;;;10.27;;
12332;SDS011;6232;48.094;11.288;2022-08-30T01:47:28;15.37;;;10.37;;
12332;SDS011;6232;48.094;11.288;2022-08-30T01:50:14;12.53;;;10.10;;
12332;SDS011;6232;48.094;11.288;2022-08-30T01:52:59;12.67;;;10.50;;
12332;SDS011;6232;48.094;11.288;2022-08-30T01:55:45;14.80;;;11.57;;
12332;SDS011;6232;48.094;11.288;2022-08-30T01:58:31;19.67;;;12.60;;
12332;SDS011;6232;48.094;11.288;2022-08-30T02:01:17;15.73;;;12.63;;
12332;SDS011;6232;48.094;11.288;2022-08-30T02:04:04;15.87;;;12.03;;
12332;SDS011;6232;48.094;11.288;2022-08-30T02:06:50;21.27;;;13.10;;
12332;SDS011;6232;48.094;11.288;2022-08-30T02:09:35;14.77;;;12.37;;
12332;SDS011;6232;48.094;11.288;2022-08-30T02:12:22;16.87;;;11.70;;
12332;SDS011;6232;48.094;11.288;2022-08-30T02:15:07;17.83;;;11.70;;
12332;SDS011;6232;48.094;11.288;2022-08-30T02:17:54;14.40;;;12.00;;
12332;SDS011;6232;48.094;11.288;2022-08-30T02:20:39;24.03;;;11.73;;
12332;SDS011;6232;48.094;11.288;2022-08-30T02:23:25;14.10;;;11.20;;
12332;SDS011;6232;48.094;11.288;2022-08-30T02:26:11;18.27;;;12.73;;
12332;SDS011;6232;48.094;11.288;2022-08-30T02:28:57;17.33;;;12.10;;
12332;SDS011;6232;48.094;11.288;2022-08-30T02:31:43;12.37;;;11.07;;
12332;SDS011;6232;48.094;11.288;2022-08-30T02:34:28;16.13;;;12.13;;
12332;SDS011;6232;48.094;11.288;2022-08-30T02:37:14;14.57;;;10.67;;
12332;SDS011;6232;48.094;11.288;2022-08-30T02:40:00;12.97;;;10.83;;
12332;SDS011;6232;48.094;11.288;2022-08-30T02:42:45;13.73;;;11.23;;
12332;SDS011;6232;48.094;11.288;2022-08-30T02:45:31;15.87;;;12.53;;
12332;SDS011;6232;48.094;11.288;2022-08-30T02:48:17;17.43;;;12.23;;
12332;SDS011;6232;48.094;11.288;2022-08-30T02:51:08;18.10;;;11.20;;
12332;SDS011;6232;48.094;11.288;2022-08-30T02:53:54;15.00;;;11.97;;
12332;SDS011;6232;48.094;11.288;2022-08-30T02:56:40;24.20;;;11.80;;
12332;SDS011;6232;48.094;11.288;2022-08-30T02:59:26;15.77;;;13.00;;
12332;SDS011;6232;48.094;11.288;2022-08-30T03:02:12;20.27;;;14.07;;
12332;SDS011;6232;48.094;11.288;2022-08-30T03:04:57;19.47;;;14.10;;
12332;SDS011;6232;48.094;11.288;2022-08-30T03:07:43;20.33;;;15.23;;
12332;SDS011;6232;48.094;11.288;2022-08-30T03:10:30;21.43;;;14.90;;
12332;SDS011;6232;48.094;11.288;2022-08-30T03:13:16;18.57;;;13.23;;
12332;SDS011;6232;48.094;11.288;2022-08-30T03:16:01;17.33;;;13.80;;
12332;SDS011;6232;48.094;11.288;2022-08-30T03:18:47;16.00;;;13.20;;
12332;SDS011;6232;48.094;11.288;2022-08-30T03:21:32;22.93;;;15.10;;
12332;SDS011;6232;48.094;11.288;2022-08-30T03:24:20;21.00;;;13.97;;
12332;SDS011;6232;48.094;11.288;2022-08-30T03:27:06;16.47;;;12.90;;
12332;SDS011;6232;48.094;11.288;2022-08-30T03:29:52;18.83;;;13.20;;
12332;SDS011;6232;48.094;11.288;2022-08-30T03:32:38;17.57;;;12.80;;
12332;SDS011;6232;48.094;11.288;2022-08-30T03:35:24;17.67;;;13.60;;
12332;SDS011;6232;48.094;11.288;2022-08-30T03:38:10;17.00;;;12.67;;
12332;SDS011;6232;48.094;11.288;2022-08-30T03:40:55;14.27;;;11.00;;
12332;SDS011;6232;48.094;11.288;2022-08-30T03:43:41;16.30;;;11.70;;
12332;SDS011;6232;48.094;11.288;2022-08-30T03:46:28;12.90;;;11.30;;
12332;SDS011;6232;48.094;11.288;2022-08-30T03:49:13;15.43;;;11.60;;
12332;SDS011;6232;48.094;11.288;2022-08-30T03:51:59;18.67;;;11.93;;
12332;SDS011;6232;48.094;11.288;2022-08-30T03:54:45;19.53;;;12.00;;
12332;SDS011;6232;48.094;11.288;2022-08-30T03:57:30;14.40;;;12.43;;
12332;SDS011;6232;48.094;11.288;2022-08-30T04:00:16;17.20;;;12.17;;
12332;SDS011;6232;48.094;11.288;2022-08-30T04:03:02;16.37;;;12.40;;
12332;SDS011;6232;48.094;11.288;2022-08-30T04:05:47;16.50;;;11.80;;
12332;SDS011;6232;48.094;11.288;2022-08-30T04:08:33;13.70;;;10.73;;
12332;SDS011;6232;48.094;11.288;2022-08-30T04:11:19;14.53;;;10.67;;
12332;SDS011;6232;48.094;11.288;2022-08-30T04:14:04;16.27;;;10.90;;
12332;SDS011;6232;48.094;11.288;2022-08-30T04:16:50;16.33;;;11.90;;
12332;SDS011;6232;48.094;11.288;2022-08-30T04:19:36;16.80;;;12.87;;
12332;SDS011;6232;48.094;11.288;2022-08-30T04:22:21;14.33;;;11.87;;
12332;SDS011;6232;48.094;11.288;2022-08-30T04:25:07;18.43;;;12.50;;
12332;SDS011;6232;48.094;11.288;2022-08-30T04:27:52;15.73;;;11.97;;
12332;SDS011;6232;48.094;11.288;2022-08-30T04:30:42;17.10;;;12.53;;
12332;SDS011;6232;48.094;11.288;2022-08-30T04:33:27;22.17;;;13.73;;
12332;SDS011;6232;48.094;11.288;2022-08-30T04:36:13;23.77;;;13.73;;
12332;SDS011;6232;48.094;11.288;2022-08-30T04:38:59;24.10;;;15.03;;
12332;SDS011;6232;48.094;11.288;2022-08-30T04:41:44;25.27;;;16.67;;
12332;SDS011;6232;48.094;11.288;2022-08-30T04:44:30;20.70;;;15.10;;
12332;SDS011;6232;48.094;11.288;2022-08-30T04:47:16;22.10;;;14.20;;
12332;SDS011;6232;48.094;11.288;2022-08-30T04:50:02;20.97;;;13.67;;
12332;SDS011;6232;48.094;11.288;2022-08-30T04:52:49;22.93;;;15.27;;
12332;SDS011;6232;48.094;11.288;2022-08-30T04:55:35;17.10;;;13.37;;
12332;SDS011;6232;48.094;11.288;2022-08-30T04:58:20;23.50;;;14.27;;
12332;SDS011;6232;48.094;11.288;2022-08-30T05:01:10;20.60;;;14.43;;
12332;SDS011;6232;48.094;11.288;2022-08-30T05:03:56;19.33;;;12.70;;
12332;SDS011;6232;48.094;11.288;2022-08-30T05:06:41;22.53;;;15.57;;
12332;SDS011;6232;48.094;11.288;2022-08-30T05:09:27;26.67;;;13.47;;
12332;SDS011;6232;48.094;11.288;2022-08-30T05:12:13;21.80;;;14.30;;
12332;SDS011;6232;48.094;11.288;2022-08-30T05:14:58;23.27;;;15.00;;
12332;SDS011;6232;48.094;11.288;2022-08-30T05:17:44;30.03;;;13.77;;
12332;SDS011;6232;48.094;11.288;2022-08-30T05:20:30;21.93;;;15.50;;
12332;SDS011;6232;48.094;11.288;2022-08-30T05:23:15;21.30;;;14.00;;
12332;SDS011;6232;48.094;11.288;2022-08-30T05:26:36;36.70;;;14.93;;
12332;SDS011;6232;48.094;11.288;2022-08-30T05:29:12;17.47;;;14.17;;
12332;SDS011;6232;48.094;11.288;2022-08-30T05:31:58;23.10;;;14.00;;
12332;SDS011;6232;48.094;11.288;2022-08-30T05:34:43;19.10;;;14.60;;
12332;SDS011;6232;48.094;11.288;2022-08-30T05:37:29;26.37;;;14.50;;
12332;SDS011;6232;48.094;11.288;2022-08-30T05:40:15;22.57;;;15.30;;
12332;SDS011;6232;48.094;11.288;2022-08-30T05:43:01;19.10;;;14.33;;
12332;SDS011;6232;48.094;11.288;2022-08-30T05:45:47;18.93;;;14.37;;
12332;SDS011;6232;48.094;11.288;2022-08-30T05:48:32;20.70;;;14.00;;
12332;SDS011;6232;48.094;11.288;2022-08-30T05:51:19;20.53;;;13.43;;
12332;SDS011;6232;48.094;11.288;2022-08-30T05:54:05;21.07;;;14.00;;
12332;SDS011;6232;48.094;11.288;2022-08-30T05:56:51;13.93;;;12.00;;
12332;SDS011;6232;48.094;11.288;2022-08-30T05:59:37;23.03;;;11.40;;
12332;SDS011;6232;48.094;11.288;2022-08-30T06:02:22;20.90;;;11.80;;
12332;SDS011;6232;48.094;11.288;2022-08-30T06:05:08;13.70;;;11.20;;
12332;SDS011;6232;48.094;11.288;2022-08-30T06:07:54;20.13;;;10.10;;
12332;SDS011;6232;48.094;11.288;2022-08-30T06:10:40;12.73;;;9.90;;
12332;SDS011;6232;48.094;11.288;2022-08-30T06:13:25;15.60;;;10.20;;
12332;SDS011;6232;48.094;11.288;2022-08-30T06:16:11;14.73;;;9.40;;
12332;SDS011;6232;48.094;11.288;2022-08-30T06:18:57;12.20;;;9.80;;
12332;SDS011;6232;48.094;11.288;2022-08-30T06:21:45;10.03;;;9.00;;
12332;SDS011;6232;48.094;11.288;2022-08-30T06:24:32;14.90;;;9.17;;
12332;SDS011;6232;48.094;11.288;2022-08-30T06:27:17;16.60;;;9.10;;
12332;SDS011;6232;48.094;11.288;2022-08-30T06:30:03;11.47;;;8.90;;
12332;SDS011;6232;48.094;11.288;2022-08-30T06:32:52;14.60;;;9.83;;
12332;SDS011;6232;48.094;11.288;2022-08-30T06:35:37;11.17;;;10.00;;
12332;SDS011;6232;48.094;11.288;2022-08-30T06:38:23;16.87;;;8.90;;
12332;SDS011;6232;48.094;11.288;2022-08-30T06:41:09;10.30;;;8.50;;
12332;SDS011;6232;48.094;11.288;2022-08-30T06:43:55;11.90;;;8.60;;
12332;SDS011;6232;48.094;11.288;2022-08-30T06:46:41;9.63;;;8.70;;
12332;SDS011;6232;48.094;11.288;2022-08-30T06:49:27;10.53;;;8.03;;
12332;SDS011;6232;48.094;11.288;2022-08-30T06:52:12;10.10;;;8.93;;
12332;SDS011;6232;48.094;11.288;2022-08-30T06:54:58;8.50;;;7.70;;
12332;SDS011;6232;48.094;11.288;2022-08-30T06:57:44;8.50;;;7.63;;
12332;SDS011;6232;48.094;11.288;2022-08-30T07:00:30;12.40;;;8.50;;
12332;SDS011;6232;48.094;11.288;2022-08-30T07:03:15;11.93;;;7.80;;
12332;SDS011;6232;48.094;11.288;2022-08-30T07:06:01;9.00;;;7.37;;
12332;SDS011;6232;48.094;11.288;2022-08-30T07:08:46;15.70;;;8.47;;
12332;SDS011;6232;48.094;11.288;2022-08-30T07:11:34;9.43;;;7.73;;
12332;SDS011;6232;48.094;11.288;2022-08-30T07:14:20;17.43;;;7.73;;
12332;SDS011;6232;48.094;11.288;2022-08-30T07:17:06;7.87;;;7.07;;
12332;SDS011;6232;48.094;11.288;2022-08-30T07:20:12;10.00;;;6.93;;
12332;SDS011;6232;48.094;11.288;2022-08-30T07:22:58;10.30;;;8.30;;
12332;SDS011;6232;48.094;11.288;2022-08-30T07:25:43;8.63;;;7.80;;
12332;SDS011;6232;48.094;11.288;2022-08-30T07:28:29;9.60;;;8.10;;
12332;SDS011;6232;48.094;11.288;2022-08-30T07:31:15;8.20;;;7.30;;
12332;SDS011;6232;48.094;11.288;2022-08-30T07:34:02;15.13;;;7.70;;
12332;SDS011;6232;48.094;11.288;2022-08-30T07:36:48;7.53;;;6.63;;
12332;SDS011;6232;48.094;11.288;2022-08-30T07:39:33;9.13;;;6.97;;
12332;SDS011;6232;48.094;11.288;2022-08-30T07:42:19;6.90;;;6.30;;
12332;SDS011;6232;48.094;11.288;2022-08-30T07:45:04;8.80;;;7.90;;
12332;SDS011;6232;48.094;11.288;2022-08-30T07:47:50;10.43;;;7.67;;
12332;SDS011;6232;48.094;11.288;2022-08-30T07:50:36;9.00;;;7.10;;
12332;SDS011;6232;48.094;11.288;2022-08-30T07:53:22;8.90;;;6.50;;
12332;SDS011;6232;48.094;11.288;2022-08-30T07:56:08;8.10;;;7.20;;
12332;SDS011;6232;48.094;11.288;2022-08-30T07:58:53;9.60;;;7.60;;
12332;SDS011;6232;48.094;11.288;2022-08-30T08:01:39;8.67;;;7.77;;
12332;SDS011;6232;48.094;11.288;2022-08-30T08:04:25;7.23;;;6.53;;
12332;SDS011;6232;48.094;11.288;2022-08-30T08:07:10;8.20;;;6.43;;
12332;SDS011;6232;48.094;11.288;2022-08-30T08:09:56;7.70;;;7.00;;
12332;SDS011;6232;48.094;11.288;2022-08-30T08:12:42;6.70;;;6.10;;
12332;SDS011;6232;48.094;11.288;2022-08-30T08:15:28;7.60;;;6.80;;
12332;SDS011;6232;48.094;11.288;2022-08-30T08:18:13;7.17;;;6.47;;
12332;SDS011;6232;48.094;11.288;2022-08-30T08:20:59;9.37;;;7.50;;
12332;SDS011;6232;48.094;11.288;2022-08-30T08:23:45;9.27;;;7.10;;
12332;SDS011;6232;48.094;11.288;2022-08-30T08:26:32;9.50;;;6.33;;
12332;SDS011;6232;48.094;11.288;2022-08-30T08:29:18;7.40;;;6.60;;
12332;SDS011;6232;48.094;11.288;2022-08-30T08:32:04;8.80;;;6.37;;
12332;SDS011;6232;48.094;11.288;2022-08-30T08:34:49;11.27;;;6.60;;
12332;SDS011;6232;48.094;11.288;2022-08-30T08:37:35;6.83;;;6.13;;
12332;SDS011;6232;48.094;11.288;2022-08-30T08:40:20;7.20;;;5.57;;
12332;SDS011;6232;48.094;11.288;2022-08-30T08:43:09;11.10;;;5.97;;
12332;SDS011;6232;48.094;11.288;2022-08-30T08:48:45;7.73;;;5.97;;
12332;SDS011;6232;48.094;11.288;2022-08-30T08:51:32;7.93;;;5.70;;
12332;SDS011;6232;48.094;11.288;2022-08-30T08:54:47;8.60;;;6.47;;
12332;SDS011;6232;48.094;11.288;2022-08-30T08:57:35;8.13;;;6.00;;
12332;SDS011;6232;48.094;11.288;2022-08-30T09:00:21;6.83;;;6.13;;
12332;SDS011;6232;48.094;11.288;2022-08-30T09:03:07;6.50;;;5.90;;
12332;SDS011;6232;48.094;11.288;2022-08-30T09:05:54;8.23;;;5.47;;
12332;SDS011;6232;48.094;11.288;2022-08-30T09:08:41;6.27;;;5.20;;
12332;SDS011;6232;48.094;11.288;2022-08-30T09:11:28;5.97;;;5.30;;
12332;SDS011;6232;48.094;11.288;2022-08-30T09:14:15;5.50;;;5.00;;
12332;SDS011;6232;48.094;11.288;2022-08-30T09:17:05;5.80;;;5.20;;
12332;SDS011;6232;48.094;11.288;2022-08-30T09:22:37;5.90;;;5.40;;
12332;SDS011;6232;48.094;11.288;2022-08-30T09:25:27;6.77;;;5.40;;
12332;SDS011;6232;48.094;11.288;2022-08-30T09:28:13;5.80;;;5.20;;
12332;SDS011;6232;48.094;11.288;2022-08-30T09:31:04;10.90;;;5.17;;
12332;SDS011;6232;48.094;11.288;2022-08-30T09:33:54;9.63;;;5.03;;
12332;SDS011;6232;48.094;11.288;2022-08-30T09:36:41;5.43;;;5.00;;
12332;SDS011;6232;48.094;11.288;2022-08-30T09:39:31;6.90;;;4.23;;
12332;SDS011;6232;48.094;11.288;2022-08-30T09:42:22;5.63;;;5.00;;
12332;SDS011;6232;48.094;11.288;2022-08-30T09:45:16;4.80;;;4.40;;
12332;SDS011;6232;48.094;11.288;2022-08-30T09:51:13;4.70;;;3.83;;
12332;SDS011;6232;48.094;11.288;2022-08-30T09:54:17;4.93;;;4.10;;
12332;SDS011;6232;48.094;11.288;2022-08-30T09:57:17;5.93;;;4.87;;
12332;SDS011;6232;48.094;11.288;2022-08-30T10:00:09;4.60;;;3.97;;
12332;SDS011;6232;48.094;11.288;2022-08-30T10:08:45;11.77;;;4.23;;
12332;SDS011;6232;48.094;11.288;2022-08-30T10:20:37;6.30;;;4.17;;
12332;SDS011;6232;48.094;11.288;2022-08-30T10:23:36;4.20;;;3.80;;
12332;SDS011;6232;48.094;11.288;2022-08-30T10:29:29;6.40;;;4.53;;
12332;SDS011;6232;48.094;11.288;2022-08-30T10:35:21;4.07;;;3.67;;
12332;SDS011;6232;48.094;11.288;2022-08-30T10:38:09;7.47;;;4.30;;
12332;SDS011;6232;48.094;11.288;2022-08-30T10:41:19;7.50;;;3.75;;
12332;SDS011;6232;48.094;11.288;2022-08-30T10:46:59;6.38;;;4.72;;
12332;SDS011;6232;48.094;11.288;2022-08-30T10:49:47;3.90;;;3.50;;
12332;SDS011;6232;48.094;11.288;2022-08-30T10:55:27;4.53;;;4.13;;
12332;SDS011;6232;48.094;11.288;2022-08-30T10:58:14;6.05;;;3.55;;
12332;SDS011;6232;48.094;11.288;2022-08-30T11:13:11;4.25;;;3.70;;
12332;SDS011;6232;48.094;11.288;2022-08-30T11:16:05;3.45;;;3.15;;
12332;SDS011;6232;48.094;11.288;2022-08-30T11:18:52;4.82;;;3.95;;
12332;SDS011;6232;48.094;11.288;2022-08-30T11:21:39;7.43;;;3.47;;
12332;SDS011;6232;48.094;11.288;2022-08-30T11:24:25;5.95;;;4.35;;
12332;SDS011;6232;48.094;11.288;2022-08-30T11:27:25;5.35;;;3.55;;
12332;SDS011;6232;48.094;11.288;2022-08-30T11:35:57;4.22;;;3.65;;
12332;SDS011;6232;48.094;11.288;2022-08-30T11:41:33;6.47;;;3.88;;
12332;SDS011;6232;48.094;11.288;2022-08-30T11:44:29;4.65;;;3.33;;
12332;SDS011;6232;48.094;11.288;2022-08-30T11:50:34;4.80;;;4.00;;
12332;SDS011;6232;48.094;11.288;2022-08-30T11:53:28;3.45;;;3.15;;
12332;SDS011;6232;48.094;11.288;2022-08-30T11:59:36;4.05;;;3.75;;
12332;SDS011;6232;48.094;11.288;2022-08-30T12:14:05;3.70;;;3.40;;
12332;SDS011;6232;48.094;11.288;2022-08-30T12:16:50;3.67;;;3.33;;
12332;SDS011;6232;48.094;11.288;2022-08-30T12:19:56;3.83;;;3.38;;
12332;SDS011;6232;48.094;11.288;2022-08-30T12:22:42;4.95;;;2.95;;
12332;SDS011;6232;48.094;11.288;2022-08-30T12:25:29;4.10;;;3.80;;
12332;SDS011;6232;48.094;11.288;2022-08-30T12:28:24;2.70;;;2.50;;
12332;SDS011;6232;48.094;11.288;2022-08-30T12:31:14;3.28;;;2.97;;
12332;SDS011;6232;48.094;11.288;2022-08-30T12:34:00;3.40;;;3.15;;
12332;SDS011;6232;48.094;11.288;2022-08-30T12:36:51;3.60;;;3.17;;
12332;SDS011;6232;48.094;11.288;2022-08-30T12:39:40;3.42;;;2.95;;
12332;SDS011;6232;48.094;11.288;2022-08-30T12:42:30;2.90;;;2.70;;
12332;SDS011;6232;48.094;11.288;2022-08-30T12:45:17;7.80;;;3.17;;
12332;SDS011;6232;48.094;11.288;2022-08-30T12:48:07;3.60;;;3.30;;
12332;SDS011;6232;48.094;11.288;2022-08-30T12:50:57;3.50;;;3.20;;
12332;SDS011;6232;48.094;11.288;2022-08-30T12:53:43;3.50;;;3.20;;
12332;SDS011;6232;48.094;11.288;2022-08-30T12:56:45;5.53;;;3.75;;
12332;SDS011;6232;48.094;11.288;2022-08-30T13:02:44;4.40;;;2.95;;
12332;SDS011;6232;48.094;11.288;2022-08-30T13:17:19;2.83;;;2.63;;
12332;SDS011;6232;48.094;11.288;2022-08-30T13:23:01;4.28;;;3.10;;
12332;SDS011;6232;48.094;11.288;2022-08-30T13:25:47;4.75;;;3.60;;
12332;SDS011;6232;48.094;11.288;2022-08-30T13:28:46;3.60;;;3.30;;
12332;SDS011;6232;48.094;11.288;2022-08-30T13:31:32;3.40;;;3.10;;
12332;SDS011;6232;48.094;11.288;2022-08-30T13:34:17;3.83;;;3.28;;
12332;SDS011;6232;48.094;11.288;2022-08-30T13:37:06;3.63;;;3.33;;
12332;SDS011;6232;48.094;11.288;2022-08-30T13:39:54;3.13;;;2.83;;
12332;SDS011;6232;48.094;11.288;2022-08-30T13:42:40;3.63;;;3.22;;
12332;SDS011;6232;48.094;11.288;2022-08-30T13:45:27;3.92;;;3.63;;
12332;SDS011;6232;48.094;11.288;2022-08-30T13:48:12;3.72;;;3.30;;
12332;SDS011;6232;48.094;11.288;2022-08-30T13:50:59;3.25;;;2.95;;
12332;SDS011;6232;48.094;11.288;2022-08-30T13:53:45;3.35;;;3.05;;
12332;SDS011;6232;48.094;11.288;2022-08-30T13:56:30;4.03;;;3.10;;
12332;SDS011;6232;48.094;11.288;2022-08-30T13:59:16;4.82;;;3.38;;
12332;SDS011;6232;48.094;11.288;2022-08-30T14:02:02;3.50;;;3.20;;
12332;SDS011;6232;48.094;11.288;2022-08-30T14:04:47;3.42;;;3.13;;
12332;SDS011;6232;48.094;11.288;2022-08-30T14:07:33;4.15;;;3.67;;
12332;SDS011;6232;48.094;11.288;2022-08-30T14:10:18;3.15;;;2.85;;
12332;SDS011;6232;48.094;11.288;2022-08-30T14:13:05;3.35;;;3.15;;
12332;SDS011;6232;48.094;11.288;2022-08-30T14:15:51;5.03;;;3.40;;
12332;SDS011;6232;48.094;11.288;2022-08-30T14:18:36;5.35;;;3.72;;
12332;SDS011;6232;48.094;11.288;2022-08-30T14:21:22;4.45;;;4.05;;
12332;SDS011;6232;48.094;11.288;2022-08-30T14:24:08;7.30;;;3.45;;
12332;SDS011;6232;48.094;11.288;2022-08-30T14:26:53;7.63;;;3.38;;
12332;SDS011;6232;48.094;11.288;2022-08-30T14:29:39;5.22;;;3.55;;
12332;SDS011;6232;48.094;11.288;2022-08-30T14:32:25;3.97;;;3.35;;
12332;SDS011;6232;48.094;11.288;2022-08-30T14:35:10;3.80;;;3.50;;
12332;SDS011;6232;48.094;11.288;2022-08-30T14:37:56;4.60;;;3.45;;
12332;SDS011;6232;48.094;11.288;2022-08-30T14:40:41;5.18;;;2.95;;
12332;SDS011;6232;48.094;11.288;2022-08-30T14:43:27;4.15;;;3.10;;
12332;SDS011;6232;48.094;11.288;2022-08-30T14:46:12;4.55;;;3.28;;
12332;SDS011;6232;48.094;11.288;2022-08-30T14:48:58;5.95;;;3.60;;
12332;SDS011;6232;48.094;11.288;2022-08-30T14:51:43;3.05;;;2.75;;
12332;SDS011;6232;48.094;11.288;2022-08-30T14:54:32;3.95;;;3.00;;
12332;SDS011;6232;48.094;11.288;2022-08-30T14:57:19;3.17;;;2.88;;
12332;SDS011;6232;48.094;11.288;2022-08-30T15:00:05;2.80;;;2.60;;
12332;SDS011;6232;48.094;11.288;2022-08-30T15:02:51;3.22;;;2.95;;
12332;SDS011;6232;48.094;11.288;2022-08-30T15:05:37;3.22;;;2.83;;
12332;SDS011;6232;48.094;11.288;2022-08-30T15:08:23;4.00;;;3.05;;
12332;SDS011;6232;48.094;11.288;2022-08-30T15:11:09;5.03;;;3.10;;
12332;SDS011;6232;48.094;11.288;2022-08-30T15:13:55;6.53;;;2.88;;
12332;SDS011;6232;48.094;11.288;2022-08-30T15:16:40;3.53;;;3.22;;
12332;SDS011;6232;48.094;11.288;2022-08-30T15:19:26;4.43;;;3.03;;
12332;SDS011;6232;48.094;11.288;2022-08-30T15:22:11;6.18;;;3.00;;
12332;SDS011;6232;48.094;11.288;2022-08-30T15:24:57;3.33;;;3.13;;
12332;SDS011;6232;48.094;11.288;2022-08-30T15:27:45;3.10;;;2.90;;
12332;SDS011;6232;48.094;11.288;2022-08-30T15:30:31;3.00;;;2.80;;
12332;SDS011;6232;48.094;11.288;2022-08-30T15:33:16;3.28;;;2.97;;
12332;SDS011;6232;48.094;11.288;2022-08-30T15:36:02;3.50;;;3.20;;
12332;SDS011;6232;48.094;11.288;2022-08-30T15:38:50;3.42;;;2.90;;
12332;SDS011;6232;48.094;11.288;2022-08-30T15:41:36;8.80;;;3.63;;
12332;SDS011;6232;48.094;11.288;2022-08-30T15:44:21;4.05;;;3.53;;
12332;SDS011;6232;48.094;11.288;2022-08-30T15:47:07;3.53;;;3.23;;
12332;SDS011;6232;48.094;11.288;2022-08-30T15:49:53;6.10;;;4.03;;
12332;SDS011;6232;48.094;11.288;2022-08-30T15:52:40;4.20;;;3.40;;
12332;SDS011;6232;48.094;11.288;2022-08-30T15:55:26;5.10;;;3.93;;
12332;SDS011;6232;48.094;11.288;2022-08-30T15:58:11;4.40;;;4.00;;
12332;SDS011;6232;48.094;11.288;2022-08-30T16:00:58;5.93;;;3.90;;
12332;SDS011;6232;48.094;11.288;2022-08-30T16:03:43;6.83;;;4.60;;
12332;SDS011;6232;48.094;11.288;2022-08-30T16:06:32;4.83;;;4.20;;
12332;SDS011;6232;48.094;11.288;2022-08-30T16:09:19;6.77;;;4.87;;
12332;SDS011;6232;48.094;11.288;2022-08-30T16:12:05;5.20;;;4.70;;
12332;SDS011;6232;48.094;11.288;2022-08-30T16:14:51;8.60;;;4.07;;
12332;SDS011;6232;48.094;11.288;2022-08-30T16:17:37;5.50;;;4.70;;
12332;SDS011;6232;48.094;11.288;2022-08-30T16:20:22;5.70;;;4.63;;
12332;SDS011;6232;48.094;11.288;2022-08-30T16:23:08;5.87;;;4.37;;
12332;SDS011;6232;48.094;11.288;2022-08-30T16:25:54;6.47;;;4.30;;
12332;SDS011;6232;48.094;11.288;2022-08-30T16:28:40;4.37;;;3.97;;
12332;SDS011;6232;48.094;11.288;2022-08-30T16:31:29;5.03;;;4.53;;
12332;SDS011;6232;48.094;11.288;2022-08-30T16:34:18;4.63;;;4.00;;
12332;SDS011;6232;48.094;11.288;2022-08-30T16:37:04;5.50;;;4.83;;
12332;SDS011;6232;48.094;11.288;2022-08-30T16:39:49;5.27;;;3.50;;
12332;SDS011;6232;48.094;11.288;2022-08-30T16:42:35;10.53;;;4.40;;
12332;SDS011;6232;48.094;11.288;2022-08-30T16:45:20;5.40;;;4.40;;
12332;SDS011;6232;48.094;11.288;2022-08-30T16:48:06;5.50;;;4.90;;
12332;SDS011;6232;48.094;11.288;2022-08-30T16:50:52;7.20;;;4.90;;
12332;SDS011;6232;48.094;11.288;2022-08-30T16:53:37;6.27;;;5.67;;
12332;SDS011;6232;48.094;11.288;2022-08-30T16:56:24;7.03;;;4.97;;
12332;SDS011;6232;48.094;11.288;2022-08-30T16:59:09;6.70;;;4.57;;
12332;SDS011;6232;48.094;11.288;2022-08-30T17:01:56;5.13;;;4.40;;
12332;SDS011;6232;48.094;11.288;2022-08-30T17:04:41;5.20;;;4.47;;
12332;SDS011;6232;48.094;11.288;2022-08-30T17:07:27;5.00;;;4.50;;
12332;SDS011;6232;48.094;11.288;2022-08-30T17:10:13;6.57;;;5.03;;
12332;SDS011;6232;48.094;11.288;2022-08-30T17:12:58;6.93;;;4.73;;
12332;SDS011;6232;48.094;11.288;2022-08-30T17:15:44;6.63;;;4.87;;
12332;SDS011;6232;48.094;11.288;2022-08-30T17:18:32;5.90;;;4.23;;
12332;SDS011;6232;48.094;11.288;2022-08-30T17:21:18;6.87;;;4.37;;
12332;SDS011;6232;48.094;11.288;2022-08-30T17:24:04;9.70;;;4.70;;
12332;SDS011;6232;48.094;11.288;2022-08-30T17:26:49;8.50;;;5.70;;
12332;SDS011;6232;48.094;11.288;2022-08-30T17:29:35;8.13;;;5.10;;
12332;SDS011;6232;48.094;11.288;2022-08-30T17:32:21;5.53;;;4.73;;
12332;SDS011;6232;48.094;11.288;2022-08-30T17:35:06;4.60;;;4.20;;
12332;SDS011;6232;48.094;11.288;2022-08-30T17:37:52;5.27;;;4.70;;
12332;SDS011;6232;48.094;11.288;2022-08-30T17:40:37;6.77;;;5.30;;
12332;SDS011;6232;48.094;11.288;2022-08-30T17:43:23;9.33;;;5.40;;
12332;SDS011;6232;48.094;11.288;2022-08-30T17:46:10;14.67;;;4.93;;
12332;SDS011;6232;48.094;11.288;2022-08-30T17:48:55;6.83;;;6.10;;
12332;SDS011;6232;48.094;11.288;2022-08-30T17:51:41;9.13;;;5.53;;
12332;SDS011;6232;48.094;11.288;2022-08-30T17:54:28;10.53;;;5.47;;
12332;SDS011;6232;48.094;11.288;2022-08-30T17:57:14;7.57;;;4.90;;
12332;SDS011;6232;48.094;11.288;2022-08-30T18:00:00;6.07;;;5.47;;
12332;SDS011;6232;48.094;11.288;2022-08-30T18:02:46;6.63;;;5.17;;
12332;SDS011;6232;48.094;11.288;2022-08-30T18:05:31;7.07;;;6.07;;
12332;SDS011;6232;48.094;11.288;2022-08-30T18:08:17;6.50;;;5.30;;